sensor_id;sensor_type;location;lat;lon;timestamp;pressure;altitude;pressure_sealevel;temperature;humidity
54042;BME280;41156;51.508;5.406;2023-06-14T00:00:16;101287.19;;;20.73;41.60
54042;BME280;41156;51.508;5.406;2023-06-14T00:03:16;101286.66;;;20.65;41.44
54042;BME280;41156;51.508;5.406;2023-06-14T00:06:17;101297.91;;;20.64;42.01
54042;BME280;41156;51.508;5.406;2023-06-14T00:09:18;101293.44;;;20.58;41.79
54042;BME280;41156;51.508;5.406;2023-06-14T00:12:18;101302.50;;;20.53;41.96
54042;BME280;41156;51.508;5.406;2023-06-14T00:15:18;101296.16;;;20.47;42.29
54042;BME280;41156;51.508;5.406;2023-06-14T00:18:19;101291.22;;;20.39;42.49
54042;BME280;41156;51.508;5.406;2023-06-14T00:21:19;101297.50;;;20.40;42.32
54042;BME280;41156;51.508;5.406;2023-06-14T00:24:19;101297.75;;;20.33;42.52
54042;BME280;41156;51.508;5.406;2023-06-14T00:27:20;101294.19;;;20.27;42.42
54042;BME280;41156;51.508;5.406;2023-06-14T00:30:20;101299.66;;;20.22;42.88
54042;BME280;41156;51.508;5.406;2023-06-14T00:33:20;101300.47;;;20.18;42.60
54042;BME280;41156;51.508;5.406;2023-06-14T00:36:21;101300.16;;;20.09;42.72
54042;BME280;41156;51.508;5.406;2023-06-14T00:39:21;101290.22;;;19.92;43.12
54042;BME280;41156;51.508;5.406;2023-06-14T00:42:28;101299.75;;;19.85;44.32
54042;BME280;41156;51.508;5.406;2023-06-14T00:45:28;101300.03;;;19.88;44.96
54042;BME280;41156;51.508;5.406;2023-06-14T00:48:29;101300.63;;;19.90;42.99
54042;BME280;41156;51.508;5.406;2023-06-14T00:51:30;101302.75;;;19.83;42.71
54042;BME280;41156;51.508;5.406;2023-06-14T00:54:30;101300.84;;;19.78;42.87
54042;BME280;41156;51.508;5.406;2023-06-14T00:57:31;101296.13;;;19.74;43.09
54042;BME280;41156;51.508;5.406;2023-06-14T01:00:31;101302.91;;;19.66;42.98
54042;BME280;41156;51.508;5.406;2023-06-14T01:03:32;101302.63;;;19.63;42.71
54042;BME280;41156;51.508;5.406;2023-06-14T01:10:12;101308.53;;;19.44;44.18
54042;BME280;41156;51.508;5.406;2023-06-14T01:13:34;101304.09;;;19.38;43.90
54042;BME280;41156;51.508;5.406;2023-06-14T01:16:35;101309.53;;;19.33;43.84
54042;BME280;41156;51.508;5.406;2023-06-14T01:19:36;101308.94;;;19.26;43.30
54042;BME280;41156;51.508;5.406;2023-06-14T01:22:36;101308.91;;;19.20;42.85
54042;BME280;41156;51.508;5.406;2023-06-14T01:25:37;101305.88;;;19.17;43.28
54042;BME280;41156;51.508;5.406;2023-06-14T01:28:38;101306.66;;;19.12;43.24
54042;BME280;41156;51.508;5.406;2023-06-14T01:31:39;101306.09;;;19.10;42.81
54042;BME280;41156;51.508;5.406;2023-06-14T01:34:41;101309.34;;;19.07;42.61
54042;BME280;41156;51.508;5.406;2023-06-14T01:37:42;101303.81;;;19.02;42.68
54042;BME280;41156;51.508;5.406;2023-06-14T01:40:44;101308.72;;;19.00;42.74
54042;BME280;41156;51.508;5.406;2023-06-14T01:43:45;101303.19;;;18.95;43.08
54042;BME280;41156;51.508;5.406;2023-06-14T01:46:47;101311.34;;;18.90;42.93
54042;BME280;41156;51.508;5.406;2023-06-14T01:49:48;101305.31;;;18.88;42.69
54042;BME280;41156;51.508;5.406;2023-06-14T01:52:48;101300.09;;;18.86;42.45
54042;BME280;41156;51.508;5.406;2023-06-14T01:55:48;101300.28;;;18.79;42.82
54042;BME280;41156;51.508;5.406;2023-06-14T01:58:49;101298.00;;;18.71;42.91
54042;BME280;41156;51.508;5.406;2023-06-14T02:01:50;101299.63;;;18.67;42.95
54042;BME280;41156;51.508;5.406;2023-06-14T02:04:50;101301.22;;;18.63;43.02
54042;BME280;41156;51.508;5.406;2023-06-14T02:07:50;101302.31;;;18.62;43.08
54042;BME280;41156;51.508;5.406;2023-06-14T02:10:51;101298.41;;;18.58;42.88
54042;BME280;41156;51.508;5.406;2023-06-14T02:13:51;101303.84;;;18.53;42.81
54042;BME280;41156;51.508;5.406;2023-06-14T02:16:52;101306.53;;;18.47;43.43
54042;BME280;41156;51.508;5.406;2023-06-14T02:19:52;101310.34;;;18.46;42.98
54042;BME280;41156;51.508;5.406;2023-06-14T02:22:53;101310.03;;;18.43;43.33
54042;BME280;41156;51.508;5.406;2023-06-14T02:25:53;101304.81;;;18.41;43.16
54042;BME280;41156;51.508;5.406;2023-06-14T02:28:54;101311.28;;;18.35;43.41
54042;BME280;41156;51.508;5.406;2023-06-14T02:31:54;101310.72;;;18.33;43.14
54042;BME280;41156;51.508;5.406;2023-06-14T02:34:54;101309.84;;;18.27;43.24
54042;BME280;41156;51.508;5.406;2023-06-14T02:37:55;101307.63;;;18.24;43.18
54042;BME280;41156;51.508;5.406;2023-06-14T02:40:55;101313.03;;;18.19;43.30
54042;BME280;41156;51.508;5.406;2023-06-14T02:43:55;101313.28;;;18.18;43.75
54042;BME280;41156;51.508;5.406;2023-06-14T02:46:56;101312.16;;;18.14;43.65
54042;BME280;41156;51.508;5.406;2023-06-14T02:49:56;101326.31;;;18.10;43.75
54042;BME280;41156;51.508;5.406;2023-06-14T02:52:57;101318.63;;;18.07;43.84
54042;BME280;41156;51.508;5.406;2023-06-14T02:55:58;101327.59;;;18.03;44.02
54042;BME280;41156;51.508;5.406;2023-06-14T02:58:58;101323.13;;;17.97;44.19
54042;BME280;41156;51.508;5.406;2023-06-14T03:02:00;101317.91;;;17.95;44.10
54042;BME280;41156;51.508;5.406;2023-06-14T03:05:00;101315.69;;;17.92;44.06
54042;BME280;41156;51.508;5.406;2023-06-14T03:08:01;101320.56;;;17.90;44.40
54042;BME280;41156;51.508;5.406;2023-06-14T03:11:02;101329.50;;;17.85;44.79
54042;BME280;41156;51.508;5.406;2023-06-14T03:14:02;101326.97;;;17.79;44.83
54042;BME280;41156;51.508;5.406;2023-06-14T03:17:04;101341.13;;;17.75;44.52
54042;BME280;41156;51.508;5.406;2023-06-14T03:20:05;101336.09;;;17.67;44.88
54042;BME280;41156;51.508;5.406;2023-06-14T03:23:06;101336.56;;;17.64;45.26
54042;BME280;41156;51.508;5.406;2023-06-14T03:26:06;101341.97;;;17.59;45.16
54042;BME280;41156;51.508;5.406;2023-06-14T03:29:07;101349.84;;;17.55;45.37
54042;BME280;41156;51.508;5.406;2023-06-14T03:32:07;101351.41;;;17.51;45.83
54042;BME280;41156;51.508;5.406;2023-06-14T03:35:08;101353.81;;;17.48;45.80
54042;BME280;41156;51.508;5.406;2023-06-14T03:38:09;101342.56;;;17.44;45.68
54042;BME280;41156;51.508;5.406;2023-06-14T03:41:09;101349.56;;;17.40;45.92
54042;BME280;41156;51.508;5.406;2023-06-14T03:44:09;101344.63;;;17.37;45.72
54042;BME280;41156;51.508;5.406;2023-06-14T03:47:09;101353.88;;;17.36;46.00
54042;BME280;41156;51.508;5.406;2023-06-14T03:50:10;101357.94;;;17.33;46.08
54042;BME280;41156;51.508;5.406;2023-06-14T03:53:11;101356.53;;;17.31;46.24
54042;BME280;41156;51.508;5.406;2023-06-14T03:56:11;101359.50;;;17.29;46.73
54042;BME280;41156;51.508;5.406;2023-06-14T03:59:11;101355.38;;;17.27;46.47
54042;BME280;41156;51.508;5.406;2023-06-14T04:02:11;101360.00;;;17.26;46.85
54042;BME280;41156;51.508;5.406;2023-06-14T04:05:15;101372.59;;;17.27;46.55
54042;BME280;41156;51.508;5.406;2023-06-14T04:08:16;101362.66;;;17.21;46.81
54042;BME280;41156;51.508;5.406;2023-06-14T04:11:19;101365.63;;;17.19;47.11
54042;BME280;41156;51.508;5.406;2023-06-14T04:14:20;101364.81;;;17.19;47.00
54042;BME280;41156;51.508;5.406;2023-06-14T04:17:20;101370.28;;;17.19;47.12
54042;BME280;41156;51.508;5.406;2023-06-14T04:20:21;101374.56;;;17.15;47.65
54042;BME280;41156;51.508;5.406;2023-06-14T04:23:22;101378.38;;;17.14;47.58
54042;BME280;41156;51.508;5.406;2023-06-14T04:26:22;101372.44;;;17.17;47.12
54042;BME280;41156;51.508;5.406;2023-06-14T04:29:23;101381.78;;;17.21;47.63
54042;BME280;41156;51.508;5.406;2023-06-14T04:32:24;101379.28;;;17.19;47.99
54042;BME280;41156;51.508;5.406;2023-06-14T04:35:26;101376.31;;;17.21;47.81
54042;BME280;41156;51.508;5.406;2023-06-14T04:38:27;101384.84;;;17.25;48.05
54042;BME280;41156;51.508;5.406;2023-06-14T04:41:29;101381.38;;;17.29;48.05
54042;BME280;41156;51.508;5.406;2023-06-14T04:44:30;101378.38;;;17.31;48.17
54042;BME280;41156;51.508;5.406;2023-06-14T04:47:31;101381.44;;;17.34;48.74
54042;BME280;41156;51.508;5.406;2023-06-14T04:50:32;101380.88;;;17.32;48.38
54042;BME280;41156;51.508;5.406;2023-06-14T04:53:33;101385.00;;;17.35;48.79
54042;BME280;41156;51.508;5.406;2023-06-14T04:56:34;101374.41;;;17.38;48.73
54042;BME280;41156;51.508;5.406;2023-06-14T04:59:34;101384.69;;;17.48;48.90
54042;BME280;41156;51.508;5.406;2023-06-14T05:02:35;101393.81;;;17.54;49.00
54042;BME280;41156;51.508;5.406;2023-06-14T05:05:37;101394.72;;;17.60;48.59
54042;BME280;41156;51.508;5.406;2023-06-14T05:08:38;101395.53;;;17.60;49.13
54042;BME280;41156;51.508;5.406;2023-06-14T05:11:38;101392.63;;;17.67;48.81
54042;BME280;41156;51.508;5.406;2023-06-14T05:14:38;101393.56;;;17.72;48.89
54042;BME280;41156;51.508;5.406;2023-06-14T05:17:39;101399.09;;;17.78;48.79
54042;BME280;41156;51.508;5.406;2023-06-14T05:20:41;101409.22;;;17.77;50.44
54042;BME280;41156;51.508;5.406;2023-06-14T05:23:41;101409.03;;;17.84;49.24
54042;BME280;41156;51.508;5.406;2023-06-14T05:26:42;101409.72;;;17.91;49.61
54042;BME280;41156;51.508;5.406;2023-06-14T05:29:42;101402.75;;;18.00;49.50
54042;BME280;41156;51.508;5.406;2023-06-14T05:32:43;101403.16;;;18.09;48.67
54042;BME280;41156;51.508;5.406;2023-06-14T05:35:43;101408.50;;;18.21;49.11
54042;BME280;41156;51.508;5.406;2023-06-14T05:38:44;101395.22;;;18.29;48.66
54042;BME280;41156;51.508;5.406;2023-06-14T05:41:44;101401.84;;;18.34;49.06
54042;BME280;41156;51.508;5.406;2023-06-14T05:44:45;101409.03;;;18.40;49.03
54042;BME280;41156;51.508;5.406;2023-06-14T05:47:45;101414.06;;;18.48;48.90
54042;BME280;41156;51.508;5.406;2023-06-14T05:50:45;101414.97;;;18.54;48.44
54042;BME280;41156;51.508;5.406;2023-06-14T05:53:49;101418.34;;;18.61;49.67
54042;BME280;41156;51.508;5.406;2023-06-14T05:56:49;101415.91;;;18.64;48.57
54042;BME280;41156;51.508;5.406;2023-06-14T05:59:49;101414.34;;;18.68;48.86
54042;BME280;41156;51.508;5.406;2023-06-14T06:02:51;101425.16;;;18.80;48.74
54042;BME280;41156;51.508;5.406;2023-06-14T06:05:51;101422.28;;;18.92;48.70
54042;BME280;41156;51.508;5.406;2023-06-14T06:08:51;101424.63;;;19.06;48.59
54042;BME280;41156;51.508;5.406;2023-06-14T06:11:52;101423.44;;;19.23;47.96
54042;BME280;41156;51.508;5.406;2023-06-14T06:14:52;101430.09;;;19.33;47.91
54042;BME280;41156;51.508;5.406;2023-06-14T06:17:52;101425.81;;;19.42;47.80
54042;BME280;41156;51.508;5.406;2023-06-14T06:20:52;101436.66;;;19.59;47.72
54042;BME280;41156;51.508;5.406;2023-06-14T06:23:53;101437.81;;;19.68;47.84
54042;BME280;41156;51.508;5.406;2023-06-14T06:26:54;101443.34;;;19.73;47.59
54042;BME280;41156;51.508;5.406;2023-06-14T06:29:55;101449.50;;;19.86;47.50
54042;BME280;41156;51.508;5.406;2023-06-14T06:32:56;101452.06;;;19.98;46.95
54042;BME280;41156;51.508;5.406;2023-06-14T06:35:56;101459.56;;;20.12;46.60
54042;BME280;41156;51.508;5.406;2023-06-14T06:38:56;101456.34;;;20.26;46.67
54042;BME280;41156;51.508;5.406;2023-06-14T06:41:57;101463.84;;;20.36;46.11
54042;BME280;41156;51.508;5.406;2023-06-14T06:44:57;101467.72;;;20.45;46.09
54042;BME280;41156;51.508;5.406;2023-06-14T06:47:58;101470.88;;;20.64;45.23
54042;BME280;41156;51.508;5.406;2023-06-14T06:50:58;101476.13;;;20.76;44.88
54042;BME280;41156;51.508;5.406;2023-06-14T06:53:58;101466.88;;;20.92;44.54
54042;BME280;41156;51.508;5.406;2023-06-14T06:56:59;101471.31;;;21.09;44.86
54042;BME280;41156;51.508;5.406;2023-06-14T07:00:00;101477.94;;;21.23;44.45
54042;BME280;41156;51.508;5.406;2023-06-14T07:03:00;101482.38;;;21.44;43.88
54042;BME280;41156;51.508;5.406;2023-06-14T07:06:01;101474.75;;;21.62;43.66
54042;BME280;41156;51.508;5.406;2023-06-14T07:09:01;101475.56;;;21.68;43.15
54042;BME280;41156;51.508;5.406;2023-06-14T07:12:02;101488.50;;;21.67;43.55
54042;BME280;41156;51.508;5.406;2023-06-14T07:15:03;101487.94;;;21.80;43.16
54042;BME280;41156;51.508;5.406;2023-06-14T07:18:04;101487.41;;;21.89;43.37
54042;BME280;41156;51.508;5.406;2023-06-14T07:21:04;101486.81;;;22.12;42.75
54042;BME280;41156;51.508;5.406;2023-06-14T07:24:05;101490.09;;;22.25;41.61
54042;BME280;41156;51.508;5.406;2023-06-14T07:27:06;101496.47;;;22.30;42.22
54042;BME280;41156;51.508;5.406;2023-06-14T07:30:08;101495.88;;;22.44;41.80
54042;BME280;41156;51.508;5.406;2023-06-14T07:33:08;101504.69;;;22.51;41.32
54042;BME280;41156;51.508;5.406;2023-06-14T07:36:10;101507.66;;;22.60;41.09
54042;BME280;41156;51.508;5.406;2023-06-14T07:39:10;101505.97;;;22.79;41.06
54042;BME280;41156;51.508;5.406;2023-06-14T07:42:11;101513.06;;;22.96;40.58
54042;BME280;41156;51.508;5.406;2023-06-14T07:45:13;101507.78;;;23.09;40.61
54042;BME280;41156;51.508;5.406;2023-06-14T07:48:14;101520.66;;;23.24;40.71
54042;BME280;41156;51.508;5.406;2023-06-14T07:51:14;101512.84;;;23.42;40.06
54042;BME280;41156;51.508;5.406;2023-06-14T07:54:14;101516.13;;;23.49;40.12
54042;BME280;41156;51.508;5.406;2023-06-14T07:57:15;101514.84;;;23.71;39.77
54042;BME280;41156;51.508;5.406;2023-06-14T08:00:16;101511.97;;;23.91;39.48
54042;BME280;41156;51.508;5.406;2023-06-14T08:03:18;101521.41;;;24.14;38.70
54042;BME280;41156;51.508;5.406;2023-06-14T08:06:18;101525.78;;;24.20;38.42
54042;BME280;41156;51.508;5.406;2023-06-14T08:09:19;101535.41;;;24.28;37.95
54042;BME280;41156;51.508;5.406;2023-06-14T08:12:19;101536.63;;;24.41;37.56
54042;BME280;41156;51.508;5.406;2023-06-14T08:15:19;101539.09;;;24.72;37.69
54042;BME280;41156;51.508;5.406;2023-06-14T08:18:20;101528.50;;;25.22;37.00
54042;BME280;41156;51.508;5.406;2023-06-14T08:21:20;101530.41;;;25.84;35.56
54042;BME280;41156;51.508;5.406;2023-06-14T08:24:21;101520.69;;;26.19;33.46
54042;BME280;41156;51.508;5.406;2023-06-14T08:27:24;101523.00;;;26.45;34.30
54042;BME280;41156;51.508;5.406;2023-06-14T08:30:25;101523.84;;;26.73;34.82
54042;BME280;41156;51.508;5.406;2023-06-14T08:33:25;101513.88;;;27.00;33.86
54042;BME280;41156;51.508;5.406;2023-06-14T08:36:25;101530.69;;;27.31;31.57
54042;BME280;41156;51.508;5.406;2023-06-14T08:39:26;101517.53;;;27.23;31.09
54042;BME280;41156;51.508;5.406;2023-06-14T08:42:26;101518.44;;;27.46;32.85
54042;BME280;41156;51.508;5.406;2023-06-14T08:45:26;101522.41;;;27.77;32.45
54042;BME280;41156;51.508;5.406;2023-06-14T08:48:27;101522.41;;;28.22;31.81
54042;BME280;41156;51.508;5.406;2023-06-14T08:51:27;101518.28;;;28.51;30.81
54042;BME280;41156;51.508;5.406;2023-06-14T08:54:33;101513.81;;;28.72;30.79
54042;BME280;41156;51.508;5.406;2023-06-14T08:57:37;101517.31;;;29.04;29.85
54042;BME280;41156;51.508;5.406;2023-06-14T09:00:38;101507.16;;;28.91;29.99
54042;BME280;41156;51.508;5.406;2023-06-14T09:03:41;101520.78;;;29.01;29.34
54042;BME280;41156;51.508;5.406;2023-06-14T09:06:41;101524.09;;;29.21;29.22
54042;BME280;41156;51.508;5.406;2023-06-14T09:09:42;101516.75;;;29.25;28.20
54042;BME280;41156;51.508;5.406;2023-06-14T09:12:42;101528.03;;;29.28;28.42
54042;BME280;41156;51.508;5.406;2023-06-14T09:15:43;101515.94;;;29.50;27.94
54042;BME280;41156;51.508;5.406;2023-06-14T09:18:45;101522.00;;;29.26;27.74
54042;BME280;41156;51.508;5.406;2023-06-14T09:21:48;101508.34;;;29.16;27.88
54042;BME280;41156;51.508;5.406;2023-06-14T09:24:48;101515.53;;;29.08;26.95
54042;BME280;41156;51.508;5.406;2023-06-14T09:27:49;101512.81;;;29.26;27.04
54042;BME280;41156;51.508;5.406;2023-06-14T09:30:49;101528.03;;;29.46;27.10
54042;BME280;41156;51.508;5.406;2023-06-14T09:33:50;101528.06;;;29.55;26.25
54042;BME280;41156;51.508;5.406;2023-06-14T09:36:51;101529.00;;;29.24;25.56
54042;BME280;41156;51.508;5.406;2023-06-14T09:39:51;101524.88;;;29.12;24.44
54042;BME280;41156;51.508;5.406;2023-06-14T09:42:52;101523.72;;;29.13;25.17
54042;BME280;41156;51.508;5.406;2023-06-14T09:45:53;101534.16;;;28.99;25.25
54042;BME280;41156;51.508;5.406;2023-06-14T09:48:54;101535.16;;;28.94;25.61
54042;BME280;41156;51.508;5.406;2023-06-14T09:51:56;101530.09;;;29.14;25.24
54042;BME280;41156;51.508;5.406;2023-06-14T09:54:59;101530.34;;;29.44;24.90
54042;BME280;41156;51.508;5.406;2023-06-14T09:58:00;101536.88;;;29.30;24.66
54042;BME280;41156;51.508;5.406;2023-06-14T10:01:05;101529.69;;;29.56;24.77
54042;BME280;41156;51.508;5.406;2023-06-14T10:04:10;101527.06;;;29.85;24.68
54042;BME280;41156;51.508;5.406;2023-06-14T10:07:10;101525.69;;;30.09;24.67
54042;BME280;41156;51.508;5.406;2023-06-14T10:10:11;101532.19;;;30.31;24.02
54042;BME280;41156;51.508;5.406;2023-06-14T10:13:12;101517.81;;;30.20;24.79
54042;BME280;41156;51.508;5.406;2023-06-14T10:16:30;101508.63;;;30.19;23.48
54042;BME280;41156;51.508;5.406;2023-06-14T10:19:40;101516.66;;;30.30;23.22
54042;BME280;41156;51.508;5.406;2023-06-14T10:22:47;101516.78;;;30.33;23.82
54042;BME280;41156;51.508;5.406;2023-06-14T10:25:50;101518.41;;;30.34;23.73
54042;BME280;41156;51.508;5.406;2023-06-14T10:29:07;101517.16;;;30.23;22.45
54042;BME280;41156;51.508;5.406;2023-06-14T10:32:08;101516.91;;;29.98;23.94
54042;BME280;41156;51.508;5.406;2023-06-14T10:35:08;101523.00;;;29.83;23.90
54042;BME280;41156;51.508;5.406;2023-06-14T10:38:11;101525.09;;;29.95;22.84
54042;BME280;41156;51.508;5.406;2023-06-14T10:41:12;101517.78;;;30.29;23.18
54042;BME280;41156;51.508;5.406;2023-06-14T10:50:27;101519.78;;;30.67;22.58
54042;BME280;41156;51.508;5.406;2023-06-14T10:53:40;101515.22;;;30.92;23.06
54042;BME280;41156;51.508;5.406;2023-06-14T10:56:48;101519.41;;;31.07;22.51
54042;BME280;41156;51.508;5.406;2023-06-14T10:59:48;101534.03;;;31.04;22.44
54042;BME280;41156;51.508;5.406;2023-06-14T11:06:14;101518.34;;;30.60;22.70
54042;BME280;41156;51.508;5.406;2023-06-14T11:10:01;101522.88;;;30.74;22.60
54042;BME280;41156;51.508;5.406;2023-06-14T11:13:06;101522.88;;;30.74;22.88
54042;BME280;41156;51.508;5.406;2023-06-14T11:16:16;101515.00;;;31.27;22.09
54042;BME280;41156;51.508;5.406;2023-06-14T11:19:17;101518.94;;;31.26;22.48
54042;BME280;41156;51.508;5.406;2023-06-14T11:22:17;101515.66;;;31.03;22.26
54042;BME280;41156;51.508;5.406;2023-06-14T11:25:18;101514.84;;;31.02;22.64
54042;BME280;41156;51.508;5.406;2023-06-14T11:28:18;101507.03;;;31.16;22.84
54042;BME280;41156;51.508;5.406;2023-06-14T11:31:24;101508.31;;;31.19;22.74
54042;BME280;41156;51.508;5.406;2023-06-14T11:34:24;101492.13;;;31.12;23.02
54042;BME280;41156;51.508;5.406;2023-06-14T11:37:27;101505.75;;;31.35;23.01
54042;BME280;41156;51.508;5.406;2023-06-14T11:40:29;101513.44;;;31.59;22.97
54042;BME280;41156;51.508;5.406;2023-06-14T11:43:29;101506.69;;;31.81;23.15
54042;BME280;41156;51.508;5.406;2023-06-14T11:46:31;101525.69;;;31.88;22.64
54042;BME280;41156;51.508;5.406;2023-06-14T11:49:36;101514.19;;;31.68;21.49
54042;BME280;41156;51.508;5.406;2023-06-14T11:52:37;101511.94;;;31.20;22.44
54042;BME280;41156;51.508;5.406;2023-06-14T11:55:37;101501.72;;;31.24;22.64
54042;BME280;41156;51.508;5.406;2023-06-14T11:58:39;101508.88;;;31.33;22.65
54042;BME280;41156;51.508;5.406;2023-06-14T12:01:42;101496.94;;;31.45;22.78
54042;BME280;41156;51.508;5.406;2023-06-14T12:04:44;101506.34;;;31.41;22.79
54042;BME280;41156;51.508;5.406;2023-06-14T12:07:44;101507.78;;;31.26;23.23
54042;BME280;41156;51.508;5.406;2023-06-14T12:10:45;101507.03;;;31.38;23.26
54042;BME280;41156;51.508;5.406;2023-06-14T12:13:45;101501.38;;;31.46;23.04
54042;BME280;41156;51.508;5.406;2023-06-14T12:16:46;101500.56;;;31.46;22.95
54042;BME280;41156;51.508;5.406;2023-06-14T12:19:46;101503.44;;;31.58;22.69
54042;BME280;41156;51.508;5.406;2023-06-14T12:23:02;101504.03;;;31.64;22.21
54042;BME280;41156;51.508;5.406;2023-06-14T12:26:03;101511.59;;;31.84;22.80
54042;BME280;41156;51.508;5.406;2023-06-14T12:29:05;101509.84;;;31.92;22.39
54042;BME280;41156;51.508;5.406;2023-06-14T12:32:07;101512.88;;;31.99;22.21
54042;BME280;41156;51.508;5.406;2023-06-14T12:35:07;101512.63;;;31.92;22.43
54042;BME280;41156;51.508;5.406;2023-06-14T12:38:07;101502.56;;;31.66;22.57
54042;BME280;41156;51.508;5.406;2023-06-14T12:41:08;101502.72;;;31.82;22.46
54042;BME280;41156;51.508;5.406;2023-06-14T12:44:10;101510.09;;;31.99;22.39
54042;BME280;41156;51.508;5.406;2023-06-14T12:47:10;101510.97;;;32.12;21.85
54042;BME280;41156;51.508;5.406;2023-06-14T12:50:10;101512.28;;;32.27;22.44
54042;BME280;41156;51.508;5.406;2023-06-14T12:53:11;101507.81;;;32.14;22.01
54042;BME280;41156;51.508;5.406;2023-06-14T12:56:11;101512.69;;;32.04;22.20
54042;BME280;41156;51.508;5.406;2023-06-14T12:59:11;101503.53;;;31.83;21.84
54042;BME280;41156;51.508;5.406;2023-06-14T13:02:15;101506.34;;;31.95;21.68
54042;BME280;41156;51.508;5.406;2023-06-14T13:05:16;101512.03;;;32.20;22.10
54042;BME280;41156;51.508;5.406;2023-06-14T13:08:16;101512.63;;;32.13;21.41
54042;BME280;41156;51.508;5.406;2023-06-14T13:11:17;101507.25;;;31.87;21.51
54042;BME280;41156;51.508;5.406;2023-06-14T13:14:17;101516.38;;;31.96;20.94
54042;BME280;41156;51.508;5.406;2023-06-14T13:17:17;101514.41;;;31.97;21.43
54042;BME280;41156;51.508;5.406;2023-06-14T13:20:18;101516.50;;;32.00;21.36
54042;BME280;41156;51.508;5.406;2023-06-14T13:23:18;101528.50;;;32.00;21.19
54042;BME280;41156;51.508;5.406;2023-06-14T13:26:18;101526.81;;;31.87;21.57
54042;BME280;41156;51.508;5.406;2023-06-14T13:29:19;101511.94;;;31.95;21.68
54042;BME280;41156;51.508;5.406;2023-06-14T13:32:23;101517.09;;;32.05;21.68
54042;BME280;41156;51.508;5.406;2023-06-14T13:35:24;101506.56;;;32.23;21.66
54042;BME280;41156;51.508;5.406;2023-06-14T13:38:24;101500.19;;;32.48;20.73
54042;BME280;41156;51.508;5.406;2023-06-14T13:41:26;101497.59;;;32.42;20.50
54042;BME280;41156;51.508;5.406;2023-06-14T13:44:31;101508.34;;;32.53;21.43
54042;BME280;41156;51.508;5.406;2023-06-14T13:47:32;101505.91;;;32.63;20.80
54042;BME280;41156;51.508;5.406;2023-06-14T13:50:32;101494.03;;;32.54;21.14
54042;BME280;41156;51.508;5.406;2023-06-14T13:53:33;101494.47;;;32.44;21.28
54042;BME280;41156;51.508;5.406;2023-06-14T13:56:33;101491.69;;;32.56;21.15
54042;BME280;41156;51.508;5.406;2023-06-14T13:59:34;101495.75;;;32.59;21.65
54042;BME280;41156;51.508;5.406;2023-06-14T14:02:34;101496.69;;;32.75;21.49
54042;BME280;41156;51.508;5.406;2023-06-14T14:05:34;101495.88;;;32.87;21.79
54042;BME280;41156;51.508;5.406;2023-06-14T14:08:35;101493.31;;;32.82;21.47
54042;BME280;41156;51.508;5.406;2023-06-14T14:11:35;101490.06;;;32.80;21.41
54042;BME280;41156;51.508;5.406;2023-06-14T14:14:36;101497.50;;;32.76;21.38
54042;BME280;41156;51.508;5.406;2023-06-14T14:17:36;101496.25;;;32.73;21.23
54042;BME280;41156;51.508;5.406;2023-06-14T14:20:37;101498.19;;;32.60;21.46
54042;BME280;41156;51.508;5.406;2023-06-14T14:23:37;101493.69;;;32.68;21.34
54042;BME280;41156;51.508;5.406;2023-06-14T14:26:37;101495.69;;;32.68;21.63
54042;BME280;41156;51.508;5.406;2023-06-14T14:29:38;101503.09;;;32.76;21.17
54042;BME280;41156;51.508;5.406;2023-06-14T14:32:38;101501.81;;;32.86;21.35
54042;BME280;41156;51.508;5.406;2023-06-14T14:35:38;101495.38;;;32.97;20.68
54042;BME280;41156;51.508;5.406;2023-06-14T14:38:38;101487.75;;;32.70;21.38
54042;BME280;41156;51.508;5.406;2023-06-14T14:41:39;101482.47;;;32.80;20.96
54042;BME280;41156;51.508;5.406;2023-06-14T14:44:40;101487.56;;;32.91;20.96
54042;BME280;41156;51.508;5.406;2023-06-14T14:47:40;101493.91;;;32.63;21.29
54042;BME280;41156;51.508;5.406;2023-06-14T14:50:40;101494.94;;;32.46;20.61
54042;BME280;41156;51.508;5.406;2023-06-14T14:53:41;101489.22;;;32.42;20.78
54042;BME280;41156;51.508;5.406;2023-06-14T14:56:41;101488.41;;;32.79;20.89
54042;BME280;41156;51.508;5.406;2023-06-14T14:59:41;101483.66;;;32.79;20.83
54042;BME280;41156;51.508;5.406;2023-06-14T15:02:41;101487.63;;;32.66;20.89
54042;BME280;41156;51.508;5.406;2023-06-14T15:05:42;101491.34;;;32.58;20.85
54042;BME280;41156;51.508;5.406;2023-06-14T15:08:42;101490.84;;;32.56;20.87
54042;BME280;41156;51.508;5.406;2023-06-14T15:11:43;101485.03;;;32.49;20.72
54042;BME280;41156;51.508;5.406;2023-06-14T15:14:44;101488.28;;;32.38;21.47
54042;BME280;41156;51.508;5.406;2023-06-14T15:17:44;101497.38;;;32.35;20.87
54042;BME280;41156;51.508;5.406;2023-06-14T15:20:45;101493.31;;;32.45;21.13
54042;BME280;41156;51.508;5.406;2023-06-14T15:23:45;101490.03;;;32.31;21.72
54042;BME280;41156;51.508;5.406;2023-06-14T15:26:46;101499.13;;;32.40;21.08
54042;BME280;41156;51.508;5.406;2023-06-14T15:29:46;101491.22;;;32.30;21.05
54042;BME280;41156;51.508;5.406;2023-06-14T15:32:47;101487.38;;;32.46;21.70
54042;BME280;41156;51.508;5.406;2023-06-14T15:35:47;101493.66;;;32.43;21.94
54042;BME280;41156;51.508;5.406;2023-06-14T15:38:47;101501.31;;;32.34;21.30
54042;BME280;41156;51.508;5.406;2023-06-14T15:41:48;101503.44;;;32.25;21.93
54042;BME280;41156;51.508;5.406;2023-06-14T15:44:48;101500.50;;;32.21;21.87
54042;BME280;41156;51.508;5.406;2023-06-14T15:47:48;101499.94;;;32.28;22.04
54042;BME280;41156;51.508;5.406;2023-06-14T15:50:49;101493.16;;;32.29;21.86
54042;BME280;41156;51.508;5.406;2023-06-14T15:53:49;101468.91;;;32.08;22.28
54042;BME280;41156;51.508;5.406;2023-06-14T15:56:49;101492.16;;;32.00;22.08
54042;BME280;41156;51.508;5.406;2023-06-14T15:59:50;101488.72;;;32.16;22.54